Time;durP1;ratioP1;P1;durP2;ratioP2;P2;SDS_P1;SDS_P2;PMS_P1;PMS_P2;Temp;Humidity;BMP_temperature;BMP_pressure;BME280_temperature;BME280_humidity;BME280_pressure;Samples;Min_cycle;Max_cycle;Signal;HPM_P1;HPM_P2
2021/05/03 00:02:15;;;;;;;2.80;0.98;;;4.70;99.90;;;;;;5057158;28;20434;-76
2021/05/03 00:04:41;;;;;;;3.53;0.88;;;4.60;99.90;;;;;;5075660;28;20021;-76
2021/05/03 00:07:07;;;;;;;2.10;0.65;;;4.60;99.90;;;;;;5057162;28;20030;-76
2021/05/03 00:09:32;;;;;;;4.40;0.90;;;4.60;99.90;;;;;;5057156;28;20476;-76
2021/05/03 00:11:58;;;;;;;6.05;1.10;;;4.50;99.90;;;;;;5057058;28;20033;-76
2021/05/03 00:14:23;;;;;;;2.40;1.08;;;4.50;99.90;;;;;;5075009;28;20029;-76
2021/05/03 00:16:49;;;;;;;2.13;1.00;;;4.50;99.90;;;;;;5074872;28;20036;-76
2021/05/03 00:19:14;;;;;;;2.20;0.95;;;4.40;99.90;;;;;;5057362;28;20017;-76
2021/05/03 00:21:40;;;;;;;3.58;1.40;;;4.40;99.90;;;;;;5057375;28;20023;-76
2021/05/03 00:24:06;;;;;;;4.18;1.40;;;4.40;99.90;;;;;;5057053;28;20021;-76
2021/05/03 00:26:32;;;;;;;5.07;2.00;;;4.40;99.90;;;;;;5074795;28;20047;-77
2021/05/03 00:28:57;;;;;;;2.67;1.35;;;4.40;99.90;;;;;;5057330;28;20027;-77
2021/05/03 00:31:23;;;;;;;3.60;1.15;;;4.40;99.90;;;;;;5075044;28;20032;-77
2021/05/03 00:33:49;;;;;;;4.70;1.40;;;4.40;99.90;;;;;;5056844;28;20024;-76
2021/05/03 00:36:14;;;;;;;4.68;1.05;;;4.30;99.90;;;;;;5074720;28;20074;-77
2021/05/03 00:38:40;;;;;;;2.80;1.20;;;4.40;99.90;;;;;;5056755;28;20029;-77
2021/05/03 00:41:05;;;;;;;5.82;1.40;;;4.40;99.90;;;;;;5056873;28;20476;-77
2021/05/03 00:43:31;;;;;;;4.57;1.75;;;4.50;99.90;;;;;;5074502;28;20028;-77
2021/05/03 00:45:57;;;;;;;4.85;1.55;;;4.50;99.90;;;;;;5056707;28;20020;-76
2021/05/03 00:48:23;;;;;;;6.18;1.42;;;4.60;99.90;;;;;;5056641;28;20024;-76
2021/05/03 00:50:50;;;;;;;3.28;1.17;;;4.60;99.90;;;;;;5056361;28;20051;-77
2021/05/03 00:53:16;;;;;;;1.42;0.90;;;4.70;99.90;;;;;;5056763;28;20078;-77
2021/05/03 00:55:42;;;;;;;7.93;1.80;;;4.70;99.90;;;;;;5074356;28;20416;-77
2021/05/03 00:58:08;;;;;;;7.10;2.53;;;4.80;99.90;;;;;;5056580;28;20030;-76
2021/05/03 01:00:34;;;;;;;6.43;1.40;;;4.70;99.90;;;;;;5056476;28;20112;-76
2021/05/03 01:03:00;;;;;;;2.28;1.50;;;4.70;99.90;;;;;;5056425;28;20055;-77
2021/05/03 01:05:28;;;;;;;3.92;1.92;;;4.70;99.90;;;;;;5074501;28;20032;-76
2021/05/03 01:07:57;;;;;;;2.95;1.17;;;4.70;99.90;;;;;;5074855;28;20023;-76
2021/05/03 01:10:23;;;;;;;;;;;4.60;99.90;;;;;;5074748;28;20025;-77
2021/05/03 01:12:49;;;;;;;6.18;1.17;;;4.60;99.90;;;;;;5056415;28;19904;-77
2021/05/03 01:15:22;;;;;;;5.75;1.20;;;4.60;99.90;;;;;;5074163;28;20028;-77
2021/05/03 01:17:56;;;;;;;3.35;1.10;;;4.60;99.90;;;;;;5074635;28;20024;-77
2021/05/03 01:20:25;;;;;;;4.75;1.25;;;4.50;99.90;;;;;;5056276;28;20103;-76
2021/05/03 01:22:52;;;;;;;2.15;1.35;;;4.50;99.90;;;;;;5074009;28;20021;-76
2021/05/03 01:25:18;;;;;;;2.63;1.13;;;4.50;99.90;;;;;;5056140;28;20534;-76
2021/05/03 01:27:44;;;;;;;8.48;2.40;;;4.50;99.90;;;;;;5056131;28;20017;-76
2021/05/03 01:30:11;;;;;;;3.58;1.00;;;4.40;99.90;;;;;;5055675;28;20504;-76
2021/05/03 01:32:37;;;;;;;3.33;1.02;;;4.40;99.90;;;;;;5055970;28;20028;-76
2021/05/03 01:35:03;;;;;;;3.42;1.15;;;4.30;99.90;;;;;;5055882;28;20468;-76
2021/05/03 01:37:29;;;;;;;3.13;0.52;;;4.20;99.90;;;;;;5073501;28;20027;-76
2021/05/03 01:39:54;;;;;;;7.63;2.60;;;4.20;99.90;;;;;;5056015;28;20112;-77
2021/05/03 01:42:22;;;;;;;5.40;1.25;;;4.20;99.90;;;;;;5077758;23;20040;-76
2021/05/03 01:44:48;;;;;;;5.28;1.45;;;4.10;99.90;;;;;;5075943;28;20061;-78
2021/05/03 01:47:14;;;;;;;5.88;1.45;;;4.00;99.90;;;;;;5088928;22;20492;-78
2021/05/03 01:49:40;;;;;;;2.53;1.15;;;4.00;99.90;;;;;;5094193;28;20499;-77
2021/05/03 01:52:06;;;;;;;5.63;1.63;;;4.00;99.90;;;;;;5094299;28;20028;-77
2021/05/03 01:54:32;;;;;;;4.07;1.50;;;3.90;99.90;;;;;;5075672;28;20031;-78
2021/05/03 01:56:58;;;;;;;3.47;1.70;;;3.90;99.90;;;;;;5106501;22;20134;-77
2021/05/03 01:59:30;;;;;;;4.28;1.55;;;3.90;99.90;;;;;;5094091;28;20440;-77
2021/05/03 02:01:56;;;;;;;3.92;1.45;;;3.80;99.90;;;;;;5094039;28;20024;-77
2021/05/03 02:04:21;;;;;;;3.25;1.45;;;3.90;99.90;;;;;;5075879;28;20024;-78
2021/05/03 02:06:47;;;;;;;3.78;2.28;;;3.90;99.90;;;;;;5107425;22;20056;-78
2021/05/03 02:09:13;;;;;;;2.08;1.17;;;3.90;99.90;;;;;;5094527;28;20052;-76
2021/05/03 02:11:39;;;;;;;2.78;1.73;;;3.80;99.90;;;;;;5094136;28;20024;-77
2021/05/03 02:16:33;;;;;;;3.30;1.63;;;3.80;99.90;;;;;;5071612;22;20117;-77
2021/05/03 02:18:58;;;;;;;3.40;1.35;;;3.80;99.90;;;;;;5089069;28;20021;-77
2021/05/03 02:21:24;;;;;;;6.75;2.03;;;3.80;99.90;;;;;;5073731;28;20104;-77
2021/05/03 02:23:49;;;;;;;3.55;1.88;;;3.80;99.90;;;;;;5064935;23;20064;-78
2021/05/03 02:26:15;;;;;;;6.32;1.98;;;3.80;99.90;;;;;;5035560;28;20516;-77
2021/05/03 02:28:41;;;;;;;6.13;2.45;;;3.80;99.90;;;;;;5054010;28;20028;-77
2021/05/03 02:31:06;;;;;;;3.80;1.90;;;3.80;99.90;;;;;;5073470;28;20389;-77
2021/05/03 02:33:32;;;;;;;4.25;2.38;;;3.90;99.90;;;;;;5086040;22;20056;-77
2021/05/03 02:35:59;;;;;;;6.35;2.17;;;3.90;99.90;;;;;;5074503;28;20400;-77
2021/05/03 02:38:26;;;;;;;8.20;2.63;;;3.90;99.90;;;;;;5104535;22;20492;-77
2021/05/03 02:40:51;;;;;;;4.93;2.00;;;3.90;99.90;;;;;;5078951;28;20043;-77
2021/05/03 02:43:17;;;;;;;6.43;2.58;;;3.90;99.90;;;;;;5097849;28;20480;-78
2021/05/03 02:45:43;;;;;;;4.85;2.75;;;3.90;99.90;;;;;;5097362;28;20024;-77
2021/05/03 02:48:09;;;;;;;8.63;3.33;;;3.90;99.90;;;;;;5097190;28;20027;-78
2021/05/03 02:50:34;;;;;;;6.65;2.83;;;3.90;99.90;;;;;;5078520;28;20085;-77
2021/05/03 02:53:00;;;;;;;8.40;2.42;;;3.90;99.90;;;;;;5078747;28;20514;-77
2021/05/03 02:55:26;;;;;;;7.90;3.33;;;3.90;99.90;;;;;;5078431;28;20016;-77
2021/05/03 02:57:52;;;;;;;8.38;3.40;;;3.90;99.90;;;;;;5096962;28;20016;-77
2021/05/03 03:00:33;;;;;;;9.48;3.13;;;3.90;99.90;;;;;;5078751;28;20016;-77
2021/05/03 03:03:00;;;;;;;7.97;3.53;;;4.00;99.90;;;;;;5122597;22;20666;-77
2021/05/03 03:05:26;;;;;;;7.28;3.28;;;4.00;99.90;;;;;;5110213;22;20044;-76
2021/05/03 03:07:52;;;;;;;12.20;3.65;;;4.10;99.90;;;;;;5078576;28;20027;-77
2021/05/03 03:12:47;;;;;;;8.27;3.92;;;4.20;99.90;;;;;;5075324;28;20048;-77
2021/05/03 03:15:16;;;;;;;8.45;4.32;;;4.30;99.90;;;;;;5074571;22;20036;-78
2021/05/03 03:17:45;;;;;;;7.22;3.90;;;4.30;99.90;;;;;;5096439;28;20024;-77
2021/05/03 03:20:10;;;;;;;;;;;4.40;99.90;;;;;;5097000;28;20031;-77
2021/05/03 03:22:36;;;;;;;8.93;4.22;;;4.50;99.90;;;;;;5096531;28;19904;-77
2021/05/03 03:25:03;;;;;;;8.32;3.97;;;4.60;99.90;;;;;;5096445;28;20016;-77
2021/05/03 03:27:28;;;;;;;8.88;4.32;;;4.60;99.90;;;;;;5096490;28;20036;-77
2021/05/03 03:29:54;;;;;;;10.25;5.38;;;4.70;99.90;;;;;;5096664;28;20112;-77
2021/05/03 03:32:19;;;;;;;8.90;4.05;;;4.70;99.90;;;;;;5095026;28;20024;-77
2021/05/03 03:34:45;;;;;;;9.45;4.88;;;4.80;99.90;;;;;;5095739;28;20028;-76
2021/05/03 03:37:10;;;;;;;9.38;5.13;;;4.90;99.90;;;;;;5077889;28;20024;-77
2021/05/03 03:39:36;;;;;;;10.40;5.07;;;4.90;99.90;;;;;;5095969;28;20451;-78
2021/05/03 03:42:01;;;;;;;12.02;5.22;;;5.00;99.90;;;;;;5095767;28;20031;-78
2021/05/03 03:44:27;;;;;;;12.82;5.78;;;5.00;99.90;;;;;;5095932;28;20035;-78
2021/05/03 03:46:52;;;;;;;12.85;6.13;;;5.00;99.90;;;;;;5095443;28;20023;-76
2021/05/03 03:49:18;;;;;;;13.52;6.38;;;5.10;99.90;;;;;;5093974;28;20043;-76
2021/05/03 03:51:43;;;;;;;17.95;6.95;;;5.20;99.90;;;;;;5094565;28;20019;-77
2021/05/03 03:54:09;;;;;;;12.10;5.38;;;5.20;99.90;;;;;;5094456;28;20021;-77
2021/05/03 03:56:35;;;;;;;13.15;6.72;;;5.30;99.90;;;;;;5094406;28;20214;-78
2021/05/03 03:59:01;;;;;;;14.32;6.57;;;5.20;99.90;;;;;;5095517;28;20020;-77
2021/05/03 04:01:29;;;;;;;12.55;6.10;;;5.30;99.90;;;;;;5094227;22;20040;-77
2021/05/03 04:04:01;;;;;;;12.88;6.30;;;5.30;99.90;;;;;;5075359;28;20450;-78
2021/05/03 04:06:54;;;;;;;14.18;6.32;;;5.40;99.90;;;;;;5073845;28;20025;-77
2021/05/03 04:27:37;;;;;;;13.93;6.90;;;5.80;99.90;;;;;;5095573;28;20027;-76
2021/05/03 04:30:06;;;;;;;13.00;5.75;;;5.80;99.90;;;;;;5076760;28;20027;-76
2021/05/03 04:32:31;;;;;;;;;;;5.80;99.90;;;;;;5077270;28;20114;-76
2021/05/03 04:34:57;;;;;;;12.05;5.68;;;5.90;99.90;;;;;;5076825;28;19997;-76
2021/05/03 04:37:22;;;;;;;10.57;5.57;;;6.00;99.90;;;;;;5095323;28;20023;-76
2021/05/03 04:39:48;;;;;;;13.45;6.00;;;5.90;99.90;;;;;;5077239;28;20503;-76
2021/05/03 04:42:13;;;;;;;12.60;5.50;;;5.90;99.90;;;;;;5076908;28;20078;-76
2021/05/03 04:44:39;;;;;;;13.80;6.15;;;5.90;99.90;;;;;;5076964;28;20484;-76
2021/05/03 04:47:04;;;;;;;14.27;5.93;;;6.00;99.90;;;;;;5094644;28;20028;-76
2021/05/03 04:49:30;;;;;;;17.30;5.15;;;6.00;99.90;;;;;;5095118;28;20032;-76
2021/05/03 04:51:55;;;;;;;13.45;6.05;;;6.10;99.90;;;;;;5094969;28;20031;-76
2021/05/03 04:54:21;;;;;;;12.30;5.97;;;6.10;99.90;;;;;;5076540;28;20055;-76
2021/05/03 04:56:46;;;;;;;11.73;5.55;;;6.10;99.90;;;;;;5094484;28;20035;-76
2021/05/03 04:59:12;;;;;;;14.50;6.05;;;6.10;99.90;;;;;;5076320;28;20020;-76
2021/05/03 05:01:38;;;;;;;13.30;6.40;;;6.00;99.90;;;;;;5094642;28;20024;-76
2021/05/03 05:04:03;;;;;;;10.40;5.75;;;6.10;99.90;;;;;;5076620;28;20019;-76
2021/05/03 05:06:29;;;;;;;9.32;5.07;;;6.10;99.90;;;;;;5095065;28;20028;-76
2021/05/03 05:08:54;;;;;;;10.18;5.35;;;6.10;99.90;;;;;;5094827;28;20020;-76
2021/05/03 05:11:20;;;;;;;14.60;5.57;;;6.10;99.90;;;;;;5094474;28;20028;-76
2021/05/03 05:13:46;;;;;;;12.65;5.88;;;6.20;99.90;;;;;;5094801;28;20372;-76
2021/05/03 05:16:11;;;;;;;13.05;5.78;;;6.30;99.90;;;;;;5094699;28;20024;-76
2021/05/03 05:18:37;;;;;;;16.08;5.32;;;6.30;99.90;;;;;;5094077;28;20020;-76
2021/05/03 05:21:03;;;;;;;11.10;5.45;;;6.30;99.90;;;;;;5079273;28;20039;-76
2021/05/03 05:23:28;;;;;;;10.95;5.30;;;6.30;99.90;;;;;;5074473;28;20377;-76
2021/05/03 05:25:54;;;;;;;16.52;5.90;;;6.30;99.90;;;;;;5074179;28;20033;-76
2021/05/03 05:28:19;;;;;;;13.55;5.75;;;6.30;99.90;;;;;;5073813;28;20086;-76
2021/05/03 05:30:45;;;;;;;12.98;5.32;;;6.40;99.90;;;;;;5073925;28;20024;-76
2021/05/03 05:33:11;;;;;;;10.90;4.57;;;6.40;99.90;;;;;;5074800;28;20028;-76
2021/05/03 05:35:36;;;;;;;11.63;5.72;;;6.50;99.90;;;;;;5074037;28;20020;-76
2021/05/03 05:38:02;;;;;;;10.48;5.00;;;6.50;99.90;;;;;;5055888;28;20107;-76
2021/05/03 05:40:27;;;;;;;15.45;6.03;;;6.50;99.90;;;;;;5073890;28;20108;-76
2021/05/03 05:42:53;;;;;;;14.32;5.82;;;6.50;99.90;;;;;;5074144;28;20056;-76
2021/05/03 05:45:18;;;;;;;11.68;4.95;;;6.60;99.90;;;;;;5056066;28;20512;-76
2021/05/03 05:47:44;;;;;;;12.13;6.00;;;6.60;99.90;;;;;;5074013;28;20496;-77
2021/05/03 05:50:10;;;;;;;11.32;5.82;;;6.70;99.90;;;;;;5074038;28;20366;-77
2021/05/03 05:52:35;;;;;;;11.07;5.38;;;6.70;99.90;;;;;;5056272;28;20437;-77
2021/05/03 05:55:01;;;;;;;12.38;5.38;;;6.70;99.90;;;;;;5074209;28;20160;-77
2021/05/03 05:57:26;;;;;;;9.88;5.00;;;6.80;99.90;;;;;;5074125;28;20028;-76
2021/05/03 05:59:52;;;;;;;12.02;5.07;;;6.90;99.90;;;;;;5055767;28;20021;-76
2021/05/03 06:02:17;;;;;;;9.68;4.68;;;6.90;99.90;;;;;;5055578;28;20021;-76
2021/05/03 06:04:43;;;;;;;10.40;4.15;;;7.00;99.90;;;;;;5073751;28;20185;-76
2021/05/03 06:07:08;;;;;;;9.05;4.95;;;7.00;99.90;;;;;;5073871;28;20024;-77
2021/05/03 06:09:34;;;;;;;12.10;5.10;;;7.00;99.90;;;;;;5055832;28;20063;-76
2021/05/03 06:11:59;;;;;;;14.98;6.47;;;7.00;99.90;;;;;;5076460;28;20071;-77
2021/05/03 06:14:26;;;;;;;14.18;6.30;;;7.00;99.90;;;;;;5059347;28;20395;-76
2021/05/03 06:16:51;;;;;;;11.52;5.50;;;7.10;99.90;;;;;;5059406;28;20024;-76
2021/05/03 06:19:17;;;;;;;14.55;6.38;;;7.20;99.90;;;;;;5059517;28;20514;-77
2021/05/03 06:21:43;;;;;;;13.20;5.70;;;7.20;99.90;;;;;;5097542;28;20028;-77
2021/05/03 06:24:08;;;;;;;11.40;5.63;;;7.10;99.90;;;;;;5097706;28;20048;-77
2021/05/03 06:26:34;;;;;;;10.57;5.00;;;7.10;99.90;;;;;;5097804;28;20028;-76
2021/05/03 06:29:00;;;;;;;16.05;6.45;;;7.20;99.90;;;;;;5079203;28;20026;-77
2021/05/03 06:31:25;;;;;;;11.85;5.78;;;7.20;99.90;;;;;;5097369;28;20095;-76
2021/05/03 06:33:51;;;;;;;11.07;6.22;;;7.30;99.90;;;;;;5097947;28;20032;-77
2021/05/03 06:36:16;;;;;;;11.15;6.10;;;7.30;99.90;;;;;;5079287;28;20047;-77
2021/05/03 06:38:42;;;;;;;13.70;5.93;;;7.40;99.90;;;;;;5096951;28;20040;-77
2021/05/03 06:41:08;;;;;;;11.40;5.93;;;7.50;99.90;;;;;;5079107;28;20017;-77
2021/05/03 06:43:34;;;;;;;11.95;6.72;;;7.60;99.90;;;;;;5097317;28;20016;-76
2021/05/03 06:45:59;;;;;;;12.77;6.60;;;7.70;99.90;;;;;;5097074;28;20024;-76
2021/05/03 06:48:25;;;;;;;12.05;5.55;;;7.80;99.90;;;;;;5123082;22;20044;-76
2021/05/03 06:50:51;;;;;;;15.65;6.72;;;7.90;99.90;;;;;;5096608;28;20028;-76
2021/05/03 06:53:17;;;;;;;19.65;8.07;;;7.90;99.90;;;;;;5078936;28;20016;-77
2021/05/03 06:55:45;;;;;;;17.45;7.07;;;7.90;99.90;;;;;;5078591;28;20024;-76
2021/05/03 06:58:11;;;;;;;11.90;6.47;;;8.00;99.90;;;;;;5078665;28;20019;-77
2021/05/03 07:00:40;;;;;;;14.02;6.80;;;8.00;99.90;;;;;;5078691;28;20024;-76
2021/05/03 07:03:10;;;;;;;18.90;8.43;;;8.10;99.90;;;;;;5097020;28;20024;-78
2021/05/03 07:05:37;;;;;;;17.98;8.40;;;8.10;99.90;;;;;;5078404;28;20028;-77
2021/05/03 07:08:03;;;;;;;19.90;8.57;;;8.10;99.90;;;;;;5097180;28;20040;-76
2021/05/03 07:10:29;;;;;;;19.17;8.50;;;8.10;99.90;;;;;;5110177;22;20051;-76
2021/05/03 07:12:55;;;;;;;21.30;8.50;;;8.10;99.90;;;;;;5097107;28;20209;-78
2021/05/03 07:15:21;;;;;;;18.25;8.07;;;8.20;99.90;;;;;;5096603;28;20028;-78
2021/05/03 07:17:46;;;;;;;23.95;10.23;;;8.30;99.90;;;;;;5113000;22;20056;-76
2021/05/03 07:20:13;;;;;;;18.75;9.23;;;8.30;99.90;;;;;;5096531;28;20435;-76
2021/05/03 07:22:39;;;;;;;23.17;10.18;;;8.30;99.90;;;;;;5078213;28;20021;-77
2021/05/03 07:25:07;;;;;;;20.70;10.57;;;8.50;99.90;;;;;;5096613;28;20102;-77
2021/05/03 07:27:37;;;;;;;23.30;11.13;;;8.50;99.90;;;;;;5096236;28;20048;-78
2021/05/03 07:30:08;;;;;;;21.40;10.43;;;8.60;99.90;;;;;;5078584;28;20050;-77
2021/05/03 07:32:35;;;;;;;19.52;9.68;;;8.70;99.90;;;;;;5096352;28;20361;-77
2021/05/03 07:35:00;;;;;;;28.33;12.75;;;8.80;99.90;;;;;;5078181;28;20480;-77
2021/05/03 07:37:26;;;;;;;25.73;13.05;;;8.80;99.90;;;;;;5096990;28;20028;-76
2021/05/03 07:39:52;;;;;;;28.70;14.45;;;8.80;99.90;;;;;;5096119;28;20021;-78
2021/05/03 07:42:17;;;;;;;29.70;13.82;;;8.90;99.90;;;;;;5096594;28;20016;-76
2021/05/03 07:44:43;;;;;;;32.47;13.73;;;8.90;99.90;;;;;;5078037;28;20024;-77
2021/05/03 07:47:08;;;;;;;32.90;15.88;;;8.90;99.90;;;;;;5109421;22;20059;-77
2021/05/03 07:49:39;;;;;;;33.45;16.10;;;8.90;99.90;;;;;;5095866;28;20020;-77
2021/05/03 07:52:05;;;;;;;35.90;16.88;;;9.00;99.90;;;;;;5096143;28;20031;-75
2021/05/03 07:54:31;;;;;;;39.67;17.58;;;9.20;99.90;;;;;;5077577;28;20039;-79
2021/05/03 07:56:56;;;;;;;42.50;19.42;;;9.40;99.90;;;;;;5077629;28;20055;-78
2021/05/03 07:59:22;;;;;;;37.75;18.30;;;9.50;99.90;;;;;;5090511;22;20081;-76
2021/05/03 08:01:47;;;;;;;46.03;19.13;;;9.60;99.90;;;;;;5095878;28;20030;-78
2021/05/03 08:04:13;;;;;;;44.92;19.70;;;9.70;99.90;;;;;;5077517;28;20092;-77
2021/05/03 08:06:38;;;;;;;37.60;18.27;;;9.70;99.90;;;;;;5078060;28;20491;-79
2021/05/03 08:09:05;;;;;;;40.75;19.48;;;9.90;99.90;;;;;;5109132;22;20098;-76
2021/05/03 08:11:32;;;;;;;39.33;19.70;;;10.00;99.90;;;;;;5095676;28;20027;-77
2021/05/03 08:13:58;;;;;;;41.97;20.60;;;10.20;99.90;;;;;;5095902;28;20514;-77
2021/05/03 08:16:25;;;;;;;43.85;20.83;;;10.30;99.90;;;;;;5077499;28;20020;-77
2021/05/03 08:18:50;;;;;;;40.63;19.42;;;10.50;99.90;;;;;;5095700;28;20016;-77
2021/05/03 08:21:16;;;;;;;38.55;18.98;;;10.50;99.90;;;;;;5076677;28;20110;-78
2021/05/03 08:23:41;;;;;;;42.88;19.92;;;10.60;99.90;;;;;;5076850;28;20024;-78
2021/05/03 08:26:08;;;;;;;43.75;20.20;;;10.70;99.90;;;;;;5076719;28;20020;-78
2021/05/03 08:28:34;;;;;;;46.38;21.17;;;10.60;99.90;;;;;;5076632;28;20365;-77
2021/05/03 08:30:59;;;;;;;43.78;21.70;;;10.70;99.90;;;;;;5095673;28;20020;-78
2021/05/03 08:33:25;;;;;;;43.03;21.98;;;10.70;99.90;;;;;;5076057;28;20458;-78
2021/05/03 08:35:51;;;;;;;39.28;20.75;;;10.70;99.90;;;;;;5076233;28;20365;-78
2021/05/03 08:38:18;;;;;;;38.13;19.85;;;10.80;99.90;;;;;;5076439;28;20020;-78
2021/05/03 08:40:45;;;;;;;46.65;22.40;;;10.90;99.90;;;;;;5076486;28;20102;-78
2021/05/03 08:43:12;;;;;;;40.35;20.25;;;11.20;99.90;;;;;;5095130;28;20027;-77
2021/05/03 08:45:39;;;;;;;40.25;21.15;;;11.50;99.90;;;;;;5094997;28;20020;-78
2021/05/03 08:48:20;;;;;;;35.05;18.20;;;11.60;99.90;;;;;;5094554;28;20020;-78
2021/05/03 08:53:31;;;;;;;39.15;20.25;;;11.60;99.90;;;;;;5094808;28;20063;-78
2021/05/03 08:55:57;;;;;;;41.83;21.17;;;11.70;99.90;;;;;;5076481;28;20111;-78
2021/05/03 08:58:23;;;;;;;39.28;20.05;;;11.90;99.90;;;;;;5076468;28;20062;-77
2021/05/03 09:00:49;;;;;;;35.88;18.00;;;12.00;99.90;;;;;;5076594;28;20028;-78
2021/05/03 09:03:15;;;;;;;37.58;18.58;;;12.10;99.90;;;;;;5094091;28;20016;-78
2021/05/03 09:05:43;;;;;;;35.67;18.45;;;12.00;99.90;;;;;;5094813;28;20081;-77
2021/05/03 09:08:24;;;;;;;39.60;18.52;;;12.00;99.90;;;;;;5094236;28;20035;-77
2021/05/03 09:10:50;;;;;;;38.35;19.00;;;12.20;99.90;;;;;;5094140;28;20016;-77
2021/05/03 09:13:16;;;;;;;35.20;16.65;;;12.40;99.90;;;;;;5094238;28;20016;-78
2021/05/03 09:15:44;;;;;;;32.95;16.83;;;12.40;98.90;;;;;;5094119;28;20086;-78
2021/05/03 09:18:11;;;;;;;34.17;16.95;;;12.60;99.60;;;;;;5093974;28;20386;-78
2021/05/03 09:20:36;;;;;;;33.97;16.27;;;12.30;98.80;;;;;;5075811;28;20038;-78
2021/05/03 09:25:42;;;;;;;;;;;12.40;99.10;;;;;;5096092;28;20024;-76
2021/05/03 09:28:19;;;;;;;31.13;14.73;;;12.40;98.80;;;;;;5076186;28;20326;-76
2021/05/03 09:30:45;;;;;;;34.25;17.83;;;12.50;97.80;;;;;;5076598;28;20035;-77
2021/05/03 09:33:23;;;;;;;30.88;16.95;;;12.50;97.20;;;;;;5094040;28;20043;-78
2021/05/03 09:36:04;;;;;;;38.40;17.25;;;12.70;95.90;;;;;;5076328;28;20130;-77
2021/05/03 09:38:46;;;;;;;36.78;18.80;;;12.70;95.00;;;;;;5094831;28;20028;-76
2021/05/03 09:43:43;;;;;;;29.95;16.67;;;12.70;94.80;;;;;;5072372;28;20118;-76
2021/05/03 09:46:38;;;;;;;31.60;17.80;;;12.90;95.20;;;;;;5057026;28;20052;-77
2021/05/03 09:49:09;;;;;;;35.92;18.25;;;13.00;94.10;;;;;;5059740;28;20055;-77
2021/05/03 09:51:42;;;;;;;31.83;18.13;;;13.00;95.40;;;;;;5077775;28;20025;-77
2021/05/03 09:54:17;;;;;;;28.23;16.05;;;13.20;93.90;;;;;;5110699;22;20074;-77
2021/05/03 09:56:56;;;;;;;25.55;15.30;;;13.30;92.90;;;;;;5079606;28;20057;-76
2021/05/03 10:00:00;;;;;;;27.77;14.45;;;13.10;92.90;;;;;;5098318;28;20533;-78
2021/05/03 10:02:30;;;;;;;25.02;14.25;;;13.40;90.20;;;;;;4996728;28;20515;-78
2021/05/03 10:07:41;;;;;;;23.90;12.50;;;13.60;85.20;;;;;;5098669;28;20036;-78
2021/05/03 10:10:17;;;;;;;24.25;13.27;;;13.60;84.70;;;;;;5098976;28;20024;-78
2021/05/03 10:12:43;;;;;;;24.65;13.52;;;13.90;83.40;;;;;;5098602;28;20032;-78
2021/05/03 10:15:12;;;;;;;25.65;13.48;;;13.90;83.00;;;;;;5097565;28;20024;-76
2021/05/03 10:17:39;;;;;;;24.45;13.23;;;14.10;80.30;;;;;;5097609;28;20069;-77
2021/05/03 10:20:07;;;;;;;24.55;13.77;;;14.00;82.70;;;;;;5097071;28;20017;-76
2021/05/03 10:22:33;;;;;;;22.23;11.67;;;13.50;80.00;;;;;;5110347;22;20036;-77
2021/05/03 10:25:04;;;;;;;21.80;12.10;;;13.50;81.10;;;;;;5079929;28;20472;-76
2021/05/03 10:27:31;;;;;;;18.33;10.18;;;13.50;79.40;;;;;;5097341;28;20455;-76
2021/05/03 10:30:06;;;;;;;20.60;11.82;;;13.50;79.30;;;;;;5097256;28;20086;-75
2021/05/03 10:32:36;;;;;;;20.48;12.18;;;13.40;79.10;;;;;;5097294;28;20553;-75
2021/05/03 10:35:03;;;;;;;19.05;9.40;;;13.50;80.40;;;;;;5078661;28;20082;-77
2021/05/03 10:37:29;;;;;;;27.23;11.73;;;13.60;76.70;;;;;;5078683;28;20012;-75
2021/05/03 10:39:55;;;;;;;21.48;11.60;;;13.70;77.00;;;;;;5079080;28;20027;-76
2021/05/03 10:42:20;;;;;;;20.35;9.98;;;13.90;81.20;;;;;;5097870;28;20380;-78
2021/05/03 10:45:06;;;;;;;15.98;8.75;;;14.10;72.30;;;;;;5079089;28;20016;-77
2021/05/03 10:47:54;;;;;;;19.20;10.95;;;14.00;71.60;;;;;;5079630;28;20024;-75
2021/05/03 10:50:35;;;;;;;17.83;9.40;;;14.20;72.00;;;;;;5097371;28;20017;-77
2021/05/03 10:53:20;;;;;;;18.92;9.32;;;14.30;71.60;;;;;;5078973;28;20032;-79
2021/05/03 10:55:58;;;;;;;16.25;8.32;;;14.30;68.80;;;;;;5097231;28;20025;-78
2021/05/03 10:58:24;;;;;;;21.15;9.68;;;14.20;68.80;;;;;;5079142;28;20016;-78
2021/05/03 11:01:04;;;;;;;11.82;7.57;;;14.00;69.60;;;;;;5096988;28;20027;-78
2021/05/03 11:04:02;;;;;;;16.20;7.80;;;13.90;68.60;;;;;;5079010;28;20499;-78
2021/05/03 11:06:37;;;;;;;14.07;7.72;;;13.60;68.10;;;;;;5079653;28;20126;-78
2021/05/03 11:12:05;;;;;;;17.02;7.78;;;13.50;69.30;;;;;;5096592;28;20039;-78
2021/05/03 11:14:33;;;;;;;11.50;6.72;;;13.40;69.30;;;;;;5078505;28;20396;-78
2021/05/03 11:17:05;;;;;;;16.52;8.30;;;13.60;71.60;;;;;;5096735;28;20039;-78
2021/05/03 11:19:42;;;;;;;12.25;7.18;;;13.70;69.20;;;;;;5078924;28;20484;-78
2021/05/03 11:22:22;;;;;;;13.25;7.05;;;13.90;71.30;;;;;;5097052;28;20028;-78
2021/05/03 11:25:02;;;;;;;14.90;7.25;;;14.10;67.80;;;;;;5078454;28;20054;-78
2021/05/03 11:28:02;;;;;;;13.63;7.20;;;14.20;68.30;;;;;;5079015;28;20062;-77
2021/05/03 11:33:01;;;;;;;14.48;7.40;;;14.60;65.80;;;;;;5097646;28;20113;-79
2021/05/03 11:38:07;;;;;;;11.88;6.63;;;14.80;68.20;;;;;;5096662;28;20034;-76
2021/05/03 11:46:24;;;;;;;11.27;6.20;;;14.90;62.40;;;;;;5104938;22;19931;-77
2021/05/03 11:48:54;;;;;;;12.70;7.07;;;14.70;62.40;;;;;;5096683;28;20444;-78
2021/05/03 11:51:19;;;;;;;18.05;8.35;;;14.70;63.50;;;;;;5096679;28;20016;-78
2021/05/03 11:53:45;;;;;;;13.00;7.82;;;14.70;64.00;;;;;;5097095;28;20031;-78
2021/05/03 11:56:16;;;;;;;12.43;7.45;;;14.60;69.20;;;;;;5078551;28;20476;-78
2021/05/03 11:58:46;;;;;;;14.55;7.60;;;14.80;66.40;;;;;;5096965;28;20020;-78
2021/05/03 12:01:19;;;;;;;10.73;6.57;;;14.90;61.80;;;;;;5096297;28;20498;-77
2021/05/03 12:03:48;;;;;;;11.52;7.35;;;15.00;64.00;;;;;;5096263;28;20080;-78
2021/05/03 12:06:35;;;;;;;12.90;6.00;;;15.20;61.00;;;;;;5078356;28;20024;-77
2021/05/03 12:09:04;;;;;;;12.30;6.13;;;15.00;60.20;;;;;;5077376;28;20035;-78
2021/05/03 12:11:29;;;;;;;8.75;5.88;;;14.90;60.60;;;;;;5095398;28;20512;-76
2021/05/03 12:13:58;;;;;;;12.23;5.82;;;15.10;62.50;;;;;;5077792;28;20106;-78
2021/05/03 12:16:34;;;;;;;10.23;5.88;;;15.10;58.20;;;;;;5076270;28;20064;-76
2021/05/03 12:19:00;;;;;;;10.07;6.10;;;14.80;57.80;;;;;;5076512;28;20466;-75
2021/05/03 12:21:25;;;;;;;9.90;5.68;;;14.60;58.50;;;;;;5094531;28;20055;-77
2021/05/03 12:23:51;;;;;;;8.75;5.80;;;14.30;59.70;;;;;;5110786;28;20480;-77
2021/05/03 12:26:17;;;;;;;10.00;6.40;;;14.20;60.90;;;;;;5076516;28;20028;-77
2021/05/03 12:28:43;;;;;;;9.80;5.93;;;14.30;60.30;;;;;;5094699;28;20035;-77
2021/05/03 12:31:09;;;;;;;14.00;7.90;;;14.30;61.90;;;;;;5076660;28;20028;-77
2021/05/03 12:33:38;;;;;;;14.85;7.55;;;14.30;60.20;;;;;;5095576;28;20027;-75
2021/05/03 12:36:09;;;;;;;14.40;7.95;;;14.30;62.60;;;;;;5076799;28;20039;-75
2021/05/03 12:38:35;;;;;;;11.63;7.68;;;14.30;63.00;;;;;;5094379;28;20468;-75
2021/05/03 12:41:04;;;;;;;11.40;7.03;;;14.30;63.00;;;;;;5094725;28;20027;-78
2021/05/03 12:43:33;;;;;;;;;;;14.20;62.30;;;;;;5094389;28;20020;-74
2021/05/03 12:46:13;;;;;;;;;;;14.50;63.00;;;;;;5076292;28;20455;-74
2021/05/03 12:48:57;;;;;;;10.05;5.82;;;14.80;60.40;;;;;;5095067;28;19903;-78
2021/05/03 12:51:42;;;;;;;11.10;6.03;;;14.60;57.60;;;;;;5095252;28;20024;-76
2021/05/03 12:54:26;;;;;;;9.07;5.63;;;14.50;57.90;;;;;;5095269;28;20448;-74
2021/05/03 12:59:38;;;;;;;9.88;5.95;;;14.80;58.20;;;;;;5094402;28;20064;-79
2021/05/03 13:02:12;;;;;;;10.57;5.63;;;14.90;56.60;;;;;;5094434;28;20130;-75
2021/05/03 13:07:25;;;;;;;12.13;6.15;;;15.10;58.60;;;;;;5093082;28;20484;-74
2021/05/03 13:30:23;;;;;;;10.27;5.78;;;14.90;57.40;;;;;;5054944;28;20091;-78
2021/05/03 13:32:49;;;;;;;12.43;5.72;;;14.90;57.60;;;;;;5053916;28;20027;-76
2021/05/03 13:35:15;;;;;;;11.88;6.70;;;14.90;54.50;;;;;;5053461;28;20029;-75
2021/05/03 13:37:40;;;;;;;10.05;5.65;;;14.90;56.10;;;;;;5054032;28;20070;-75
2021/05/03 13:40:07;;;;;;;11.02;5.82;;;15.10;57.40;;;;;;5053568;28;20066;-76
2021/05/03 13:42:35;;;;;;;11.18;6.10;;;14.90;55.90;;;;;;5052983;28;20092;-77
2021/05/03 13:45:02;;;;;;;9.40;4.90;;;14.90;56.80;;;;;;5035772;28;20465;-77
2021/05/03 13:47:28;;;;;;;11.68;6.22;;;15.00;54.70;;;;;;5053250;28;20029;-77
2021/05/03 13:49:54;;;;;;;21.73;6.75;;;15.30;54.00;;;;;;5067985;23;20557;-76
2021/05/03 13:52:21;;;;;;;10.27;5.95;;;15.50;55.50;;;;;;5073675;28;20373;-77
2021/05/03 13:54:47;;;;;;;9.60;6.32;;;15.80;55.30;;;;;;5086562;28;20020;-77
2021/05/03 13:57:12;;;;;;;11.23;4.93;;;16.00;53.20;;;;;;5093680;28;20019;-76
2021/05/03 13:59:38;;;;;;;7.88;4.55;;;15.70;51.60;;;;;;5094415;28;20054;-77
2021/05/03 14:02:05;;;;;;;10.32;4.75;;;15.60;50.90;;;;;;5091685;28;20020;-77
2021/05/03 14:04:31;;;;;;;10.32;5.55;;;15.50;52.60;;;;;;5055671;28;20021;-77